»·PEaware :: N127CB KSAN-KPSP

N127CB :: KSAN-KPSP

FLIGHT INFORMATION

Flight Status: Arrived
Operator: Privately registered:
United States
More flights under this callsign
Pilot: Chris Beckett (15698)
Aircraft: CESSNA 510 CITATION MUSTANG
(C510)
More flights by this aircraft type
Origin: KSAN San Diego Intl-Lindbergh
United States
Destination: KPSP Palm Springs Intl
United States
More flights between these airports :: More routes between these airports
Route: +POGGI5 JLI V208 TRM V137 PSP
File this flight plan on PilotEdge
Remarks:
Altitude:
(Current/Filed)
11,000ft
Speed:
(Current/Filed)
235kts
Departed: 12-Aug-17 08:32 PM
Arrived: 12-Aug-17 09:06 PM
Distance/Time
Traveled:
74nm/0:34
Distance/Time
To Go:
Arrived

Flight Plot

Page will automatically refresh every two minutes.

Flight plan parsing failed; only flown route is shown


Map Options




Map Legend


Flown Route
Filed Route
Departure Airport
Arrival Airport
Navaid (VOR, NDB)
Fix

Horizontal Profiles

Position Reports

Time Latitude Longitude Heading Altitude Ground
Speed
12-Aug-17 20:17 32.732403 -117.177930 81 21ft 0kts
12-Aug-17 20:18 32.732403 -117.177930 81 21ft 0kts
12-Aug-17 20:19 32.732403 -117.177930 81 21ft 0kts
12-Aug-17 20:20 32.732403 -117.177930 81 21ft 0kts
12-Aug-17 20:23 32.732411 -117.177880 194 21ft 0kts
12-Aug-17 20:24 32.732411 -117.177880 194 21ft 0kts
12-Aug-17 20:25 32.732411 -117.177880 194 21ft 0kts
12-Aug-17 20:26 32.732411 -117.177880 194 21ft 0kts
12-Aug-17 20:27 32.732411 -117.177880 194 21ft 0kts
12-Aug-17 20:28 32.732411 -117.177880 194 21ft 0kts
12-Aug-17 20:29 32.732411 -117.177880 194 21ft 0kts
12-Aug-17 20:30 32.732411 -117.177880 194 21ft 0kts
12-Aug-17 20:31 32.732411 -117.177880 194 21ft 0kts
12-Aug-17 20:32 32.732279 -117.177911 182 21ft 8kts
12-Aug-17 20:33 32.730934 -117.175496 163 21ft 0kts
12-Aug-17 20:34 32.730182 -117.175967 281 21ft 16kts
12-Aug-17 20:35 32.737754 -117.208809 284 1169ft 154kts
12-Aug-17 20:36 32.751860 -117.265623 284 5783ft 194kts
12-Aug-17 20:37 32.722966 -117.298788 163 8026ft 202kts
12-Aug-17 20:38 32.670754 -117.275580 160 8005ft 201kts
12-Aug-17 20:39 32.647237 -117.217751 102 9469ft 214kts
12-Aug-17 20:40 32.636477 -117.149022 101 11013ft 217kts
12-Aug-17 20:41 32.625667 -117.078863 101 11017ft 218kts
12-Aug-17 20:42 32.614736 -117.008015 100 11016ft 218kts
12-Aug-17 20:43 32.614374 -116.937219 81 11014ft 215kts
12-Aug-17 20:44 32.642906 -116.883848 21 11013ft 224kts
12-Aug-17 20:45 32.709764 -116.846348 26 11007ft 275kts
12-Aug-17 20:46 32.778226 -116.805246 26 11003ft 276kts
12-Aug-17 20:47 32.846444 -116.764095 26 11001ft 276kts
12-Aug-17 20:48 32.914907 -116.722725 26 11005ft 276kts
12-Aug-17 20:49 32.983201 -116.681365 26 11008ft 277kts
12-Aug-17 20:50 33.052240 -116.639497 25 11009ft 281kts
12-Aug-17 20:51 33.119483 -116.598743 26 11009ft 285kts
12-Aug-17 20:52 33.185706 -116.546779 35 10980ft 286kts
12-Aug-17 20:53 33.250176 -116.490683 35 10907ft 288kts
12-Aug-17 20:54 33.314976 -116.434274 35 10816ft 290kts
12-Aug-17 20:55 33.380204 -116.377379 35 10780ft 290kts
12-Aug-17 20:56 33.443998 -116.321660 36 9045ft 284kts
12-Aug-17 20:57 33.506702 -116.266756 36 8853ft 253kts
12-Aug-17 20:58 33.556799 -116.222823 36 8860ft 218kts
12-Aug-17 20:59 33.605685 -116.179896 36 8860ft 218kts
12-Aug-17 21:00 33.657301 -116.192816 316 8863ft 216kts
12-Aug-17 21:01 33.690122 -116.248218 265 8874ft 209kts
12-Aug-17 21:02 33.681848 -116.316727 259 7711ft 190kts
12-Aug-17 21:03 33.689136 -116.370237 334 6726ft 118kts
12-Aug-17 21:04 33.721186 -116.400746 314 3762ft 152kts
12-Aug-17 21:05 33.746943 -116.426181 314 2580ft 115kts
12-Aug-17 21:06 33.770158 -116.450672 320 1296ft 103kts
12-Aug-17 21:07 33.791038 -116.472256 323 1093ft 102kts
12-Aug-17 21:08 33.813258 -116.492731 319 634ft 93kts
12-Aug-17 21:09 33.827714 -116.506155 321 481ft 28kts
12-Aug-17 21:10 33.825410 -116.508520 274 481ft 16kts
12-Aug-17 21:11 33.826310 -116.509400 193 481ft 0kts

Navigation Log

Ident Type
Flight plan parsing failed, navigation log unavailable